The Florida Keys Marathon Airport Marathon US
ICAO: KMTH
IATA: MTH
Category: Medium
Scheduled Services: No

Elevation: 5 ft
TransAlt. 18000 ft.

Airport Communications:
ASOS:135.525
MIAMI CNTR:133.5
MIAMI RDO:122.6
CTAF/UNICOM:122.8

KMTH Zoom In..

Runways:

(A) RW 07 length 5008 ft width 100 ft
---- / hdg 71

(B) RW 25 length 5008 ft width 100 ft
---- / hdg 251

Location; KMTH
Day. 25 / Time. 11.53 Zulu
* Altimeter: 29.99
* Temperature: 25° c. 77°f.
* Wind from: 020° Speed 07 kn.
Dewpoint: 20° c.
Visibility: 10 Statute Miles.
Clouds: Broken 2100 ft.
Clouds: Overcast 2700 ft.

KMTH 251153Z AUTO 02007KT 10SM BKN021 OVC027 25/20 A2999 RMK AO2 SLP153 T02500200 10267 20244 53016


Wind From 020°
Speed 07 kn.

  YouTube Music Video
 
jpsmedia.com for Web Design  worldairports.se 2018   terms of use